createdAt,value
2022-10-13T00:02:34.444Z,1015.1
2022-10-13T00:07:16.786Z,1015.0
2022-10-13T00:12:23.200Z,1015.0
2022-10-13T00:17:29.552Z,1014.9
2022-10-13T00:22:59.976Z,1015.0
2022-10-13T00:27:42.347Z,1014.9
2022-10-13T00:32:48.823Z,1015.0
2022-10-13T00:37:55.201Z,1014.9
2022-10-13T00:43:01.656Z,1014.9
2022-10-13T00:48:08.118Z,1014.8
2022-10-13T00:53:34.573Z,1014.8
2022-10-13T00:59:33.122Z,1014.8
2022-10-13T01:03:27.296Z,1014.7
2022-10-13T01:08:37.807Z,1014.7
2022-10-13T01:14:00.298Z,1014.6
2022-10-13T01:18:46.671Z,1014.5
2022-10-13T01:23:53.163Z,1014.5
2022-10-13T01:28:59.678Z,1014.4
2022-10-13T01:35:18.224Z,1014.5
2022-10-13T01:39:02.652Z,1014.5
2022-10-13T01:44:09.160Z,1014.4
2022-10-13T01:49:15.645Z,1014.4
2022-10-13T01:54:32.175Z,1014.2
2022-10-13T01:59:38.441Z,1014.2
2022-10-13T02:04:44.825Z,1014.2
2022-10-13T02:09:51.225Z,1014.3
2022-10-13T02:14:57.796Z,1014.3
2022-10-13T02:20:04.167Z,1014.2
2022-10-13T02:25:38.640Z,1014.2
2022-10-13T02:31:30.636Z,1014.2
2022-10-13T02:36:25.042Z,1014.2
2022-10-13T02:40:31.311Z,1014.1
2022-10-13T02:45:41.341Z,1014.1
2022-10-13T02:50:47.660Z,1014.1
2022-10-13T02:55:54.035Z,1014.1
2022-10-13T03:01:20.595Z,1014.1
2022-10-13T03:06:05.855Z,1014.0
2022-10-13T03:11:13.256Z,1014.0
2022-10-13T03:16:47.752Z,1014.0
2022-10-13T03:21:46.042Z,1013.9
2022-10-13T03:26:32.384Z,1013.9
2022-10-13T03:32:02.831Z,1013.9
2022-10-13T03:36:45.121Z,1013.8
2022-10-13T03:42:51.617Z,1013.9
2022-10-13T03:47:17.944Z,1013.8
2022-10-13T03:52:04.334Z,1013.7
2022-10-13T03:57:00.685Z,1013.6
2022-10-13T04:02:21.588Z,1013.6
2022-10-13T04:07:13.466Z,1013.6
2022-10-13T04:12:49.900Z,1013.5
2022-10-13T04:17:36.274Z,1013.6
2022-10-13T04:22:56.869Z,1013.5
2022-10-13T04:27:56.799Z,1013.5
2022-10-13T04:32:59.245Z,1013.4
2022-10-13T04:38:05.581Z,1013.3
2022-10-13T04:43:11.944Z,1013.2
2022-10-13T04:48:19.926Z,1013.2
2022-10-13T04:53:26.374Z,1013.1
2022-10-13T04:58:22.754Z,1013.1
2022-10-13T05:03:39.281Z,1013.0
2022-10-13T05:08:49.208Z,1013.2
2022-10-13T05:13:55.820Z,1013.1
2022-10-13T05:19:06.291Z,1013.0
2022-10-13T05:24:08.584Z,1013.0
2022-10-13T05:29:16.614Z,1013.0
2022-10-13T05:34:23.009Z,1012.9
2022-10-13T05:39:29.584Z,1012.8
2022-10-13T05:44:36.173Z,1012.8
2022-10-13T05:49:42.774Z,1013.0
2022-10-13T06:00:29.402Z,1012.9
2022-10-13T06:05:26.773Z,1012.9
2022-10-13T06:11:27.236Z,1012.9
2022-10-13T06:15:49.545Z,1012.9
2022-10-13T06:21:20.023Z,1012.9
2022-10-13T06:26:02.318Z,1012.9
2022-10-13T06:31:08.691Z,1012.8
2022-10-13T06:36:15.076Z,1012.9
2022-10-13T06:41:21.522Z,1013.0
2022-10-13T06:46:41.877Z,1013.1
2022-10-13T06:51:24.216Z,1013.0
2022-10-13T06:56:30.673Z,1013.0
2022-10-13T07:01:41.348Z,1013.0
2022-10-13T07:06:43.434Z,1013.0
2022-10-13T07:12:03.866Z,1013.0
2022-10-13T07:17:10.220Z,1012.9
2022-10-13T07:22:12.590Z,1012.9
2022-10-13T07:27:39.026Z,1012.8
2022-10-13T07:32:25.343Z,1012.9
2022-10-13T07:37:31.726Z,1012.9
2022-10-13T07:42:38.238Z,1013.0
2022-10-13T07:48:04.783Z,1012.9
2022-10-13T07:52:55.005Z,1012.9
2022-10-13T07:57:57.399Z,1012.7
2022-10-13T08:03:03.778Z,1012.8
2022-10-13T08:08:29.221Z,1012.8
2022-10-13T08:13:36.577Z,1012.8
2022-10-13T08:18:22.929Z,1012.8
2022-10-13T08:23:53.443Z,1012.8
2022-10-13T08:33:42.279Z,1012.8
2022-10-13T08:38:48.629Z,1012.9
2022-10-13T08:44:33.969Z,1012.8
2022-10-13T08:49:01.389Z,1012.8
2022-10-13T08:53:57.751Z,1012.8
2022-10-13T08:59:34.205Z,1012.8
2022-10-13T09:04:20.518Z,1012.6
2022-10-13T09:09:16.876Z,1012.7
2022-10-13T09:14:53.371Z,1012.6
2022-10-13T09:19:59.799Z,1012.6
2022-10-13T09:24:46.140Z,1012.5
2022-10-13T09:29:52.515Z,1012.5
2022-10-13T09:34:58.934Z,1012.6
2022-10-13T09:40:25.362Z,1012.6
2022-10-13T09:45:11.710Z,1012.6
2022-10-13T09:55:38.663Z,1012.6
2022-10-13T10:00:31.052Z,1012.5
2022-10-13T10:05:57.528Z,1012.6
2022-10-13T10:10:43.828Z,1012.5
2022-10-13T10:15:40.171Z,1012.6
2022-10-13T10:20:56.564Z,1012.5
2022-10-13T10:26:26.624Z,1012.4
2022-10-13T10:30:59.427Z,1012.4
2022-10-13T10:36:05.830Z,1012.4
2022-10-13T10:41:46.436Z,1012.3
2022-10-13T10:46:52.805Z,1012.2
2022-10-13T10:51:55.168Z,1012.1
2022-10-13T10:56:41.522Z,1012.1
2022-10-13T11:01:48.010Z,1012.0
2022-10-13T11:07:01.864Z,1011.9
2022-10-13T11:12:28.373Z,1011.8
2022-10-13T11:17:30.895Z,1011.8
2022-10-13T11:22:16.226Z,1011.7
2022-10-13T11:27:23.583Z,1011.8
2022-10-13T11:32:20.324Z,1011.7
2022-10-13T11:37:36.582Z,1011.6
2022-10-13T11:42:42.787Z,1011.6
2022-10-13T11:47:49.159Z,1011.4
2022-10-13T11:52:55.638Z,1011.4
2022-10-13T11:58:26.057Z,1011.4
2022-10-13T12:02:58.431Z,1011.3
2022-10-13T12:08:34.826Z,1011.2
2022-10-13T12:13:21.256Z,1011.2
2022-10-13T12:18:27.653Z,1011.2
2022-10-13T12:23:34.128Z,1011.2
2022-10-13T12:29:00.676Z,1011.2
2022-10-13T12:33:46.936Z,1011.2
2022-10-13T12:38:53.336Z,1011.2
2022-10-13T12:43:49.703Z,1011.1
2022-10-13T12:49:06.171Z,1011.1
2022-10-13T12:54:36.596Z,1011.1
2022-10-13T12:59:39.072Z,1011.1
2022-10-13T13:04:25.544Z,1011.2
2022-10-13T13:09:31.929Z,1011.4
2022-10-13T13:14:38.332Z,1011.4
2022-10-13T13:19:34.720Z,1011.5
2022-10-13T13:24:50.078Z,1011.5
2022-10-13T13:29:57.479Z,1011.3
2022-10-13T13:35:03.983Z,1011.3
2022-10-13T13:40:00.317Z,1011.3
2022-10-13T13:47:36.973Z,1011.3
2022-10-13T13:50:47.151Z,1011.3
2022-10-13T13:55:29.475Z,1011.2
2022-10-13T14:00:35.966Z,1011.3
2022-10-13T14:05:42.369Z,1011.2
2022-10-13T14:10:48.767Z,1011.1
2022-10-13T14:15:45.127Z,1011.1
2022-10-13T14:21:01.533Z,1011.2
2022-10-13T14:26:21.982Z,1011.1
2022-10-13T14:31:14.312Z,1011.0
2022-10-13T14:36:20.710Z,1011.0
2022-10-13T14:41:17.129Z,1010.9
2022-10-13T14:46:33.650Z,1011.0
2022-10-13T14:51:40.023Z,1011.0
2022-10-13T14:56:46.398Z,1011.0
2022-10-13T15:01:52.815Z,1011.1
2022-10-13T15:06:49.141Z,1011.1
2022-10-13T15:12:05.685Z,1011.0
2022-10-13T15:18:28.986Z,1011.0
2022-10-13T15:22:08.518Z,1011.0
2022-10-13T15:27:24.939Z,1010.9
2022-10-13T15:32:31.340Z,1010.9
2022-10-13T15:37:51.741Z,1010.9
2022-10-13T15:42:44.080Z,1010.9
2022-10-13T15:47:50.495Z,1010.9
2022-10-13T15:52:46.985Z,1010.9
2022-10-13T15:58:03.379Z,1010.8
2022-10-13T16:03:29.768Z,1010.8
2022-10-13T16:08:40.163Z,1010.7
2022-10-13T16:13:22.515Z,1010.7
2022-10-13T16:18:28.894Z,1010.7
2022-10-13T16:23:35.249Z,1010.8
2022-10-13T16:28:41.804Z,1010.7
2022-10-13T16:33:48.081Z,1010.8
2022-10-13T16:38:54.464Z,1010.8
2022-10-13T16:44:00.913Z,1010.7
2022-10-13T16:49:07.224Z,1010.8
2022-10-13T16:54:04.602Z,1010.7
2022-10-13T16:59:40.131Z,1010.7
2022-10-13T17:05:16.643Z,1010.7
2022-10-13T17:10:28.832Z,1010.8
2022-10-13T17:16:53.100Z,1010.8
2022-10-13T17:20:40.342Z,1010.9
2022-10-13T17:25:46.732Z,1010.8
2022-10-13T17:31:17.411Z,1010.9
2022-10-13T17:35:59.764Z,1010.9
2022-10-13T17:41:06.161Z,1010.9
2022-10-13T17:46:38.447Z,1010.9
2022-10-13T17:51:18.983Z,1011.0
2022-10-13T17:56:49.458Z,1010.9
2022-10-13T18:01:32.015Z,1010.8
2022-10-13T18:06:38.825Z,1010.8
2022-10-13T18:11:49.739Z,1010.9
2022-10-13T18:40:37.980Z,1011.0
2022-10-13T18:45:45.325Z,1011.0
2022-10-13T18:50:51.730Z,1011.0
2022-10-13T18:55:58.256Z,1010.9
2022-10-13T19:01:04.677Z,1011.0
2022-10-13T19:06:14.098Z,1011.0
2022-10-13T19:11:20.526Z,1011.0
2022-10-13T19:16:50.943Z,1011.1
2022-10-13T19:21:23.298Z,1011.1
2022-10-13T19:26:39.768Z,1011.1
2022-10-13T19:32:00.186Z,1011.1
2022-10-13T19:36:42.531Z,1011.1
2022-10-13T19:41:58.970Z,1011.2
2022-10-13T19:47:05.350Z,1011.1
2022-10-13T19:52:11.832Z,1011.2
2022-10-13T19:57:18.567Z,1011.1
2022-10-13T20:02:24.607Z,1011.1
2022-10-13T20:07:30.973Z,1011.1
2022-10-13T20:12:27.367Z,1011.1
2022-10-13T20:18:07.902Z,1010.9
2022-10-13T20:23:10.382Z,1011.0
2022-10-13T20:29:09.047Z,1011.0
2022-10-13T20:33:03.125Z,1011.0
2022-10-13T20:38:29.535Z,1011.0
2022-10-13T20:43:15.886Z,1011.0
2022-10-13T20:48:22.402Z,1011.0
2022-10-13T20:53:52.825Z,1011.1
2022-10-13T20:58:25.115Z,1011.1
2022-10-13T21:04:01.583Z,1011.1
2022-10-13T21:08:47.920Z,1011.1
2022-10-13T21:13:54.316Z,1011.0
2022-10-13T21:18:50.683Z,1011.1
2022-10-13T21:24:07.192Z,1011.1
2022-10-13T21:29:17.556Z,1011.2
2022-10-13T21:34:20.050Z,1011.0
2022-10-13T21:39:26.482Z,1011.2
2022-10-13T21:44:32.841Z,1011.2
2022-10-13T21:49:59.266Z,1011.1
2022-10-13T21:55:57.963Z,1011.1
2022-10-13T22:00:12.217Z,1011.2
2022-10-13T22:04:58.584Z,1011.2
2022-10-13T22:10:05.119Z,1011.1
2022-10-13T22:15:35.605Z,1011.1
2022-10-13T22:20:17.887Z,1011.1
2022-10-13T22:26:36.396Z,1011.1
2022-10-13T22:30:20.616Z,1011.1
2022-10-13T22:36:21.124Z,1011.1
2022-10-13T22:40:43.406Z,1011.1
2022-10-13T22:45:49.795Z,1011.1
2022-10-13T22:51:20.213Z,1011.1
2022-10-13T22:56:46.649Z,1011.1
2022-10-13T23:01:08.951Z,1011.0
2022-10-13T23:06:15.301Z,1011.0
2022-10-13T23:11:21.767Z,1011.0
2022-10-13T23:16:28.297Z,1010.9
2022-10-13T23:21:34.701Z,1010.9
2022-10-13T23:26:41.078Z,1010.9
2022-10-13T23:31:47.479Z,1010.9
2022-10-13T23:36:53.822Z,1010.8
2022-10-13T23:42:00.201Z,1010.7
2022-10-13T23:47:10.172Z,1010.8
2022-10-13T23:52:16.552Z,1010.8
2022-10-13T23:57:23.331Z,1010.8
